sensor_id;sensor_type;location;lat;lon;timestamp;temperature;humidity
72865;DHT22;61000;48.120;11.548;2023-12-28T00:00:57;5.50;97.40
72865;DHT22;61000;48.120;11.548;2023-12-28T00:03:29;5.60;98.00
72865;DHT22;61000;48.120;11.548;2023-12-28T00:05:56;5.50;99.70
72865;DHT22;61000;48.120;11.548;2023-12-28T00:08:22;5.50;99.90
72865;DHT22;61000;48.120;11.548;2023-12-28T00:10:49;5.60;99.90
72865;DHT22;61000;48.120;11.548;2023-12-28T00:13:17;5.40;99.90
72865;DHT22;61000;48.120;11.548;2023-12-28T00:15:44;5.50;99.90
72865;DHT22;61000;48.120;11.548;2023-12-28T00:18:11;5.30;99.90
72865;DHT22;61000;48.120;11.548;2023-12-28T00:20:40;5.40;99.90
72865;DHT22;61000;48.120;11.548;2023-12-28T00:23:07;5.40;99.90
72865;DHT22;61000;48.120;11.548;2023-12-28T00:25:33;5.30;99.90
72865;DHT22;61000;48.120;11.548;2023-12-28T00:28:00;5.30;99.90
72865;DHT22;61000;48.120;11.548;2023-12-28T00:30:27;5.30;99.90
72865;DHT22;61000;48.120;11.548;2023-12-28T00:32:54;5.20;99.90
72865;DHT22;61000;48.120;11.548;2023-12-28T00:37:49;5.10;98.80
72865;DHT22;61000;48.120;11.548;2023-12-28T00:40:16;5.00;99.90
72865;DHT22;61000;48.120;11.548;2023-12-28T00:42:43;5.30;99.90
72865;DHT22;61000;48.120;11.548;2023-12-28T00:45:10;5.00;99.90
72865;DHT22;61000;48.120;11.548;2023-12-28T00:47:37;5.00;99.90
72865;DHT22;61000;48.120;11.548;2023-12-28T00:52:32;4.80;94.30
72865;DHT22;61000;48.120;11.548;2023-12-28T00:55:00;4.70;94.60
72865;DHT22;61000;48.120;11.548;2023-12-28T00:57:27;4.60;94.60
72865;DHT22;61000;48.120;11.548;2023-12-28T00:59:54;4.70;94.70
72865;DHT22;61000;48.120;11.548;2023-12-28T01:02:20;4.60;94.70
72865;DHT22;61000;48.120;11.548;2023-12-28T01:04:47;4.60;94.80
72865;DHT22;61000;48.120;11.548;2023-12-28T01:07:14;4.60;94.90
72865;DHT22;61000;48.120;11.548;2023-12-28T01:09:41;4.60;95.00
72865;DHT22;61000;48.120;11.548;2023-12-28T01:12:09;4.60;95.20
72865;DHT22;61000;48.120;11.548;2023-12-28T01:14:36;4.60;95.30
72865;DHT22;61000;48.120;11.548;2023-12-28T01:17:03;4.50;95.60
72865;DHT22;61000;48.120;11.548;2023-12-28T01:19:31;4.50;95.50
72865;DHT22;61000;48.120;11.548;2023-12-28T01:21:57;4.50;95.60
72865;DHT22;61000;48.120;11.548;2023-12-28T01:24:24;4.50;95.60
72865;DHT22;61000;48.120;11.548;2023-12-28T01:26:52;4.50;95.50
72865;DHT22;61000;48.120;11.548;2023-12-28T01:29:20;4.50;95.50
72865;DHT22;61000;48.120;11.548;2023-12-28T01:31:47;4.50;95.60
72865;DHT22;61000;48.120;11.548;2023-12-28T01:34:14;4.50;95.40
72865;DHT22;61000;48.120;11.548;2023-12-28T01:36:41;4.40;95.40
72865;DHT22;61000;48.120;11.548;2023-12-28T01:39:10;4.40;95.30
72865;DHT22;61000;48.120;11.548;2023-12-28T01:41:37;4.40;95.40
72865;DHT22;61000;48.120;11.548;2023-12-28T01:44:04;4.40;95.60
72865;DHT22;61000;48.120;11.548;2023-12-28T01:46:33;4.40;95.50
72865;DHT22;61000;48.120;11.548;2023-12-28T01:49:00;4.40;95.70
72865;DHT22;61000;48.120;11.548;2023-12-28T01:51:28;4.40;95.60
72865;DHT22;61000;48.120;11.548;2023-12-28T01:53:55;4.40;95.40
72865;DHT22;61000;48.120;11.548;2023-12-28T01:56:24;4.40;95.50
72865;DHT22;61000;48.120;11.548;2023-12-28T01:58:51;4.40;95.60
72865;DHT22;61000;48.120;11.548;2023-12-28T02:01:19;4.40;95.90
72865;DHT22;61000;48.120;11.548;2023-12-28T02:03:48;4.40;96.30
72865;DHT22;61000;48.120;11.548;2023-12-28T02:06:15;4.30;96.20
72865;DHT22;61000;48.120;11.548;2023-12-28T02:08:43;4.30;96.00
72865;DHT22;61000;48.120;11.548;2023-12-28T02:11:09;4.20;95.70
72865;DHT22;61000;48.120;11.548;2023-12-28T02:13:37;4.20;95.60
72865;DHT22;61000;48.120;11.548;2023-12-28T02:16:11;4.20;95.60
72865;DHT22;61000;48.120;11.548;2023-12-28T02:18:43;4.20;95.70
72865;DHT22;61000;48.120;11.548;2023-12-28T02:21:12;4.20;95.80
72865;DHT22;61000;48.120;11.548;2023-12-28T02:23:39;4.20;95.80
72865;DHT22;61000;48.120;11.548;2023-12-28T02:26:13;4.10;95.80
72865;DHT22;61000;48.120;11.548;2023-12-28T02:28:40;4.10;95.50
72865;DHT22;61000;48.120;11.548;2023-12-28T02:31:08;4.20;95.00
72865;DHT22;61000;48.120;11.548;2023-12-28T02:33:43;4.30;94.50
72865;DHT22;61000;48.120;11.548;2023-12-28T02:36:13;4.40;94.10
72865;DHT22;61000;48.120;11.548;2023-12-28T02:38:43;4.50;93.90
72865;DHT22;61000;48.120;11.548;2023-12-28T02:41:13;4.60;93.70
72865;DHT22;61000;48.120;11.548;2023-12-28T02:43:40;4.70;93.80
72865;DHT22;61000;48.120;11.548;2023-12-28T02:46:06;4.70;94.10
72865;DHT22;61000;48.120;11.548;2023-12-28T02:48:34;4.70;94.60
72865;DHT22;61000;48.120;11.548;2023-12-28T02:51:01;4.70;94.90
72865;DHT22;61000;48.120;11.548;2023-12-28T02:53:28;4.60;94.70
72865;DHT22;61000;48.120;11.548;2023-12-28T02:55:55;4.60;94.60
72865;DHT22;61000;48.120;11.548;2023-12-28T02:58:23;4.60;94.80
72865;DHT22;61000;48.120;11.548;2023-12-28T03:00:50;4.50;95.00
72865;DHT22;61000;48.120;11.548;2023-12-28T03:03:17;4.50;95.10
72865;DHT22;61000;48.120;11.548;2023-12-28T03:05:44;4.40;95.00
72865;DHT22;61000;48.120;11.548;2023-12-28T03:08:11;4.40;95.30
72865;DHT22;61000;48.120;11.548;2023-12-28T03:10:39;4.30;95.30
72865;DHT22;61000;48.120;11.548;2023-12-28T03:13:05;4.40;95.30
72865;DHT22;61000;48.120;11.548;2023-12-28T03:15:34;4.30;95.30
72865;DHT22;61000;48.120;11.548;2023-12-28T03:18:01;4.30;95.30
72865;DHT22;61000;48.120;11.548;2023-12-28T03:20:28;4.30;95.10
72865;DHT22;61000;48.120;11.548;2023-12-28T03:22:54;4.30;95.00
72865;DHT22;61000;48.120;11.548;2023-12-28T03:25:21;4.30;95.00
72865;DHT22;61000;48.120;11.548;2023-12-28T03:27:48;4.30;95.00
72865;DHT22;61000;48.120;11.548;2023-12-28T03:30:15;4.30;94.50
72865;DHT22;61000;48.120;11.548;2023-12-28T03:32:43;4.40;94.00
72865;DHT22;61000;48.120;11.548;2023-12-28T03:35:10;4.50;93.60
72865;DHT22;61000;48.120;11.548;2023-12-28T03:37:37;4.60;93.30
72865;DHT22;61000;48.120;11.548;2023-12-28T03:40:05;4.60;92.90
72865;DHT22;61000;48.120;11.548;2023-12-28T03:42:32;4.80;92.80
72865;DHT22;61000;48.120;11.548;2023-12-28T03:44:59;4.90;92.50
72865;DHT22;61000;48.120;11.548;2023-12-28T03:47:26;4.90;92.60
72865;DHT22;61000;48.120;11.548;2023-12-28T03:49:54;4.80;92.80
72865;DHT22;61000;48.120;11.548;2023-12-28T03:52:22;4.80;93.00
72865;DHT22;61000;48.120;11.548;2023-12-28T03:54:50;4.80;93.10
72865;DHT22;61000;48.120;11.548;2023-12-28T03:57:17;4.70;93.00
72865;DHT22;61000;48.120;11.548;2023-12-28T03:59:43;4.70;93.00
72865;DHT22;61000;48.120;11.548;2023-12-28T04:02:10;4.70;92.70
72865;DHT22;61000;48.120;11.548;2023-12-28T04:04:38;4.80;92.60
72865;DHT22;61000;48.120;11.548;2023-12-28T04:07:06;4.70;93.10
72865;DHT22;61000;48.120;11.548;2023-12-28T04:09:33;4.70;92.80
72865;DHT22;61000;48.120;11.548;2023-12-28T04:12:00;4.70;92.60
72865;DHT22;61000;48.120;11.548;2023-12-28T04:14:27;4.70;92.60
72865;DHT22;61000;48.120;11.548;2023-12-28T04:16:54;4.70;92.40
72865;DHT22;61000;48.120;11.548;2023-12-28T04:19:21;4.80;92.00
72865;DHT22;61000;48.120;11.548;2023-12-28T04:21:48;4.80;91.80
72865;DHT22;61000;48.120;11.548;2023-12-28T04:24:16;4.90;91.60
72865;DHT22;61000;48.120;11.548;2023-12-28T04:26:43;4.90;91.50
72865;DHT22;61000;48.120;11.548;2023-12-28T04:29:10;4.90;91.60
72865;DHT22;61000;48.120;11.548;2023-12-28T04:31:40;5.00;91.50
72865;DHT22;61000;48.120;11.548;2023-12-28T04:34:07;5.00;91.50
72865;DHT22;61000;48.120;11.548;2023-12-28T04:36:39;5.00;91.60
72865;DHT22;61000;48.120;11.548;2023-12-28T04:39:07;4.90;91.60
72865;DHT22;61000;48.120;11.548;2023-12-28T04:41:35;4.90;91.80
72865;DHT22;61000;48.120;11.548;2023-12-28T04:44:02;4.90;92.20
72865;DHT22;61000;48.120;11.548;2023-12-28T04:46:29;4.80;92.20
72865;DHT22;61000;48.120;11.548;2023-12-28T04:48:56;4.80;92.50
72865;DHT22;61000;48.120;11.548;2023-12-28T04:51:23;4.70;92.50
72865;DHT22;61000;48.120;11.548;2023-12-28T04:53:50;4.70;92.20
72865;DHT22;61000;48.120;11.548;2023-12-28T04:56:18;4.70;92.00
72865;DHT22;61000;48.120;11.548;2023-12-28T04:58:47;4.70;92.00
72865;DHT22;61000;48.120;11.548;2023-12-28T05:01:14;4.70;92.30
72865;DHT22;61000;48.120;11.548;2023-12-28T05:03:40;4.70;92.50
72865;DHT22;61000;48.120;11.548;2023-12-28T05:06:07;4.70;92.70
72865;DHT22;61000;48.120;11.548;2023-12-28T05:08:34;4.60;93.20
72865;DHT22;61000;48.120;11.548;2023-12-28T05:11:01;4.70;92.60
72865;DHT22;61000;48.120;11.548;2023-12-28T05:13:28;4.60;92.60
72865;DHT22;61000;48.120;11.548;2023-12-28T05:15:56;4.60;92.60
72865;DHT22;61000;48.120;11.548;2023-12-28T05:18:23;4.60;92.40
72865;DHT22;61000;48.120;11.548;2023-12-28T05:20:50;4.60;92.50
72865;DHT22;61000;48.120;11.548;2023-12-28T05:23:17;4.60;92.20
72865;DHT22;61000;48.120;11.548;2023-12-28T05:25:44;4.60;92.20
72865;DHT22;61000;48.120;11.548;2023-12-28T05:28:11;4.60;92.10
72865;DHT22;61000;48.120;11.548;2023-12-28T05:30:38;4.60;91.90
72865;DHT22;61000;48.120;11.548;2023-12-28T05:33:06;4.70;91.80
72865;DHT22;61000;48.120;11.548;2023-12-28T05:35:33;4.70;91.80
72865;DHT22;61000;48.120;11.548;2023-12-28T05:38:00;4.70;91.80
72865;DHT22;61000;48.120;11.548;2023-12-28T05:40:27;4.70;91.80
72865;DHT22;61000;48.120;11.548;2023-12-28T05:42:54;4.70;91.70
72865;DHT22;61000;48.120;11.548;2023-12-28T05:45:21;4.80;91.70
72865;DHT22;61000;48.120;11.548;2023-12-28T05:47:48;4.70;91.90
72865;DHT22;61000;48.120;11.548;2023-12-28T05:50:17;4.80;91.70
72865;DHT22;61000;48.120;11.548;2023-12-28T05:52:43;4.80;91.60
72865;DHT22;61000;48.120;11.548;2023-12-28T05:55:10;5.00;91.20
72865;DHT22;61000;48.120;11.548;2023-12-28T05:57:37;5.00;91.10
72865;DHT22;61000;48.120;11.548;2023-12-28T06:00:05;5.10;90.90
72865;DHT22;61000;48.120;11.548;2023-12-28T06:02:38;5.10;90.90
72865;DHT22;61000;48.120;11.548;2023-12-28T06:05:06;5.10;91.00
72865;DHT22;61000;48.120;11.548;2023-12-28T06:07:34;5.10;91.00
72865;DHT22;61000;48.120;11.548;2023-12-28T06:10:01;5.10;91.50
72865;DHT22;61000;48.120;11.548;2023-12-28T06:12:28;5.00;91.50
72865;DHT22;61000;48.120;11.548;2023-12-28T06:14:55;5.00;91.60
72865;DHT22;61000;48.120;11.548;2023-12-28T06:17:22;4.90;91.60
72865;DHT22;61000;48.120;11.548;2023-12-28T06:19:49;4.80;92.10
72865;DHT22;61000;48.120;11.548;2023-12-28T06:22:16;4.80;92.10
72865;DHT22;61000;48.120;11.548;2023-12-28T06:24:45;4.80;92.50
72865;DHT22;61000;48.120;11.548;2023-12-28T06:27:11;4.70;92.70
72865;DHT22;61000;48.120;11.548;2023-12-28T06:29:38;4.70;92.80
72865;DHT22;61000;48.120;11.548;2023-12-28T06:32:06;4.60;92.70
72865;DHT22;61000;48.120;11.548;2023-12-28T06:34:33;4.50;92.70
72865;DHT22;61000;48.120;11.548;2023-12-28T06:36:59;4.50;93.00
72865;DHT22;61000;48.120;11.548;2023-12-28T06:39:27;4.50;92.90
72865;DHT22;61000;48.120;11.548;2023-12-28T06:41:55;4.40;93.00
72865;DHT22;61000;48.120;11.548;2023-12-28T06:44:22;4.40;93.20
72865;DHT22;61000;48.120;11.548;2023-12-28T06:46:49;4.40;93.20
72865;DHT22;61000;48.120;11.548;2023-12-28T06:49:15;4.40;93.50
72865;DHT22;61000;48.120;11.548;2023-12-28T06:51:42;4.40;93.50
72865;DHT22;61000;48.120;11.548;2023-12-28T06:54:11;4.30;93.60
72865;DHT22;61000;48.120;11.548;2023-12-28T06:56:38;4.30;93.70
72865;DHT22;61000;48.120;11.548;2023-12-28T06:59:07;4.30;93.70
72865;DHT22;61000;48.120;11.548;2023-12-28T07:01:37;4.30;93.70
72865;DHT22;61000;48.120;11.548;2023-12-28T07:04:04;4.20;94.00
72865;DHT22;61000;48.120;11.548;2023-12-28T07:06:31;4.20;93.70
72865;DHT22;61000;48.120;11.548;2023-12-28T07:08:58;4.20;93.60
72865;DHT22;61000;48.120;11.548;2023-12-28T07:11:25;4.20;93.50
72865;DHT22;61000;48.120;11.548;2023-12-28T07:13:53;4.30;93.50
72865;DHT22;61000;48.120;11.548;2023-12-28T07:16:21;4.30;93.30
72865;DHT22;61000;48.120;11.548;2023-12-28T07:18:48;4.30;93.20
72865;DHT22;61000;48.120;11.548;2023-12-28T07:21:15;4.30;93.40
72865;DHT22;61000;48.120;11.548;2023-12-28T07:23:41;4.30;93.30
72865;DHT22;61000;48.120;11.548;2023-12-28T07:26:14;4.40;93.10
72865;DHT22;61000;48.120;11.548;2023-12-28T07:28:41;4.50;93.10
72865;DHT22;61000;48.120;11.548;2023-12-28T07:31:10;4.50;93.10
72865;DHT22;61000;48.120;11.548;2023-12-28T07:33:38;4.50;93.10
72865;DHT22;61000;48.120;11.548;2023-12-28T07:36:05;4.50;93.50
72865;DHT22;61000;48.120;11.548;2023-12-28T07:38:32;4.40;93.40
72865;DHT22;61000;48.120;11.548;2023-12-28T07:40:59;4.40;93.50
72865;DHT22;61000;48.120;11.548;2023-12-28T07:43:26;4.40;93.40
72865;DHT22;61000;48.120;11.548;2023-12-28T07:45:53;4.40;93.60
72865;DHT22;61000;48.120;11.548;2023-12-28T07:48:20;4.40;93.60
72865;DHT22;61000;48.120;11.548;2023-12-28T07:50:48;4.40;93.60
72865;DHT22;61000;48.120;11.548;2023-12-28T07:53:17;4.50;93.50
72865;DHT22;61000;48.120;11.548;2023-12-28T07:55:44;4.50;93.40
72865;DHT22;61000;48.120;11.548;2023-12-28T07:58:11;4.50;93.50
72865;DHT22;61000;48.120;11.548;2023-12-28T08:00:38;4.70;93.10
72865;DHT22;61000;48.120;11.548;2023-12-28T08:03:05;4.70;93.20
72865;DHT22;61000;48.120;11.548;2023-12-28T08:05:32;4.80;93.10
72865;DHT22;61000;48.120;11.548;2023-12-28T08:08:00;4.90;93.30
72865;DHT22;61000;48.120;11.548;2023-12-28T08:10:27;4.90;93.20
72865;DHT22;61000;48.120;11.548;2023-12-28T08:12:54;5.00;93.20
72865;DHT22;61000;48.120;11.548;2023-12-28T08:15:20;5.00;93.10
72865;DHT22;61000;48.120;11.548;2023-12-28T08:17:47;5.10;93.10
72865;DHT22;61000;48.120;11.548;2023-12-28T08:20:14;5.20;92.90
72865;DHT22;61000;48.120;11.548;2023-12-28T08:22:42;5.20;92.80
72865;DHT22;61000;48.120;11.548;2023-12-28T08:25:10;5.40;92.70
72865;DHT22;61000;48.120;11.548;2023-12-28T08:27:37;5.40;92.50
72865;DHT22;61000;48.120;11.548;2023-12-28T08:30:05;5.50;92.40
72865;DHT22;61000;48.120;11.548;2023-12-28T08:32:32;5.60;92.30
72865;DHT22;61000;48.120;11.548;2023-12-28T08:34:59;5.70;92.00
72865;DHT22;61000;48.120;11.548;2023-12-28T08:37:26;5.80;91.90
72865;DHT22;61000;48.120;11.548;2023-12-28T08:39:53;5.90;92.00
72865;DHT22;61000;48.120;11.548;2023-12-28T08:42:22;6.20;91.60
72865;DHT22;61000;48.120;11.548;2023-12-28T08:44:50;6.30;91.50
72865;DHT22;61000;48.120;11.548;2023-12-28T08:49:44;6.60;90.60
72865;DHT22;61000;48.120;11.548;2023-12-28T08:52:11;6.70;91.00
72865;DHT22;61000;48.120;11.548;2023-12-28T08:54:40;6.90;90.60
72865;DHT22;61000;48.120;11.548;2023-12-28T08:57:07;7.00;90.50
72865;DHT22;61000;48.120;11.548;2023-12-28T08:59:37;7.10;90.00
72865;DHT22;61000;48.120;11.548;2023-12-28T09:02:04;7.30;89.90
72865;DHT22;61000;48.120;11.548;2023-12-28T09:04:31;7.50;88.90
72865;DHT22;61000;48.120;11.548;2023-12-28T09:06:58;7.60;88.40
72865;DHT22;61000;48.120;11.548;2023-12-28T09:09:24;7.70;88.70
72865;DHT22;61000;48.120;11.548;2023-12-28T09:11:51;7.70;88.60
72865;DHT22;61000;48.120;11.548;2023-12-28T09:14:18;7.80;87.90
72865;DHT22;61000;48.120;11.548;2023-12-28T09:16:47;7.90;88.30
72865;DHT22;61000;48.120;11.548;2023-12-28T09:19:14;8.00;87.70
72865;DHT22;61000;48.120;11.548;2023-12-28T09:21:41;8.10;87.40
72865;DHT22;61000;48.120;11.548;2023-12-28T09:24:08;8.20;89.20
72865;DHT22;61000;48.120;11.548;2023-12-28T09:26:35;8.40;89.50
72865;DHT22;61000;48.120;11.548;2023-12-28T09:29:02;8.50;92.80
72865;DHT22;61000;48.120;11.548;2023-12-28T09:31:28;8.70;92.40
72865;DHT22;61000;48.120;11.548;2023-12-28T09:33:57;8.70;91.30
72865;DHT22;61000;48.120;11.548;2023-12-28T09:36:25;8.80;90.40
72865;DHT22;61000;48.120;11.548;2023-12-28T09:38:52;8.90;88.30
72865;DHT22;61000;48.120;11.548;2023-12-28T09:41:21;9.00;87.20
72865;DHT22;61000;48.120;11.548;2023-12-28T09:43:54;9.10;87.20
72865;DHT22;61000;48.120;11.548;2023-12-28T09:46:21;9.30;87.10
72865;DHT22;61000;48.120;11.548;2023-12-28T09:48:48;9.50;85.50
72865;DHT22;61000;48.120;11.548;2023-12-28T09:51:17;9.50;88.20
72865;DHT22;61000;48.120;11.548;2023-12-28T09:53:44;9.70;91.00
72865;DHT22;61000;48.120;11.548;2023-12-28T09:56:12;9.70;84.80
72865;DHT22;61000;48.120;11.548;2023-12-28T09:58:39;9.80;82.70
72865;DHT22;61000;48.120;11.548;2023-12-28T10:01:07;10.00;87.50
72865;DHT22;61000;48.120;11.548;2023-12-28T10:03:35;10.10;85.70
72865;DHT22;61000;48.120;11.548;2023-12-28T10:06:03;10.10;85.80
72865;DHT22;61000;48.120;11.548;2023-12-28T10:08:31;10.00;85.60
72865;DHT22;61000;48.120;11.548;2023-12-28T10:10:59;10.00;85.50
72865;DHT22;61000;48.120;11.548;2023-12-28T10:13:26;10.10;85.30
72865;DHT22;61000;48.120;11.548;2023-12-28T10:15:56;10.10;85.30
72865;DHT22;61000;48.120;11.548;2023-12-28T10:18:23;10.10;85.70
72865;DHT22;61000;48.120;11.548;2023-12-28T10:20:51;10.10;85.40
72865;DHT22;61000;48.120;11.548;2023-12-28T10:23:18;10.20;85.40
72865;DHT22;61000;48.120;11.548;2023-12-28T10:25:47;10.20;84.60
72865;DHT22;61000;48.120;11.548;2023-12-28T10:28:16;10.20;85.00
72865;DHT22;61000;48.120;11.548;2023-12-28T10:30:44;10.30;84.00
72865;DHT22;61000;48.120;11.548;2023-12-28T10:33:12;10.60;84.50
72865;DHT22;61000;48.120;11.548;2023-12-28T10:35:40;10.30;85.20
72865;DHT22;61000;48.120;11.548;2023-12-28T10:38:07;10.40;86.80
72865;DHT22;61000;48.120;11.548;2023-12-28T10:40:37;10.50;87.40
72865;DHT22;61000;48.120;11.548;2023-12-28T10:43:08;10.60;89.20
72865;DHT22;61000;48.120;11.548;2023-12-28T10:45:39;10.70;93.80
72865;DHT22;61000;48.120;11.548;2023-12-28T10:48:07;10.70;95.00
72865;DHT22;61000;48.120;11.548;2023-12-28T10:50:38;10.70;95.50
72865;DHT22;61000;48.120;11.548;2023-12-28T10:53:15;10.80;94.10
72865;DHT22;61000;48.120;11.548;2023-12-28T10:55:50;10.80;93.20
72865;DHT22;61000;48.120;11.548;2023-12-28T10:58:28;10.90;93.50
72865;DHT22;61000;48.120;11.548;2023-12-28T11:01:00;10.80;93.50
72865;DHT22;61000;48.120;11.548;2023-12-28T11:03:34;10.80;93.40
72865;DHT22;61000;48.120;11.548;2023-12-28T11:06:03;10.90;93.70
72865;DHT22;61000;48.120;11.548;2023-12-28T11:08:32;10.80;93.50
72865;DHT22;61000;48.120;11.548;2023-12-28T11:11:01;10.90;93.50
72865;DHT22;61000;48.120;11.548;2023-12-28T11:13:32;10.90;93.30
72865;DHT22;61000;48.120;11.548;2023-12-28T11:16:00;10.90;93.10
72865;DHT22;61000;48.120;11.548;2023-12-28T11:18:28;11.00;93.50
72865;DHT22;61000;48.120;11.548;2023-12-28T11:20:56;10.90;93.50
72865;DHT22;61000;48.120;11.548;2023-12-28T11:23:24;10.90;93.30
72865;DHT22;61000;48.120;11.548;2023-12-28T11:25:51;10.90;93.30
72865;DHT22;61000;48.120;11.548;2023-12-28T11:28:18;10.90;93.30
72865;DHT22;61000;48.120;11.548;2023-12-28T11:30:48;11.10;93.50
72865;DHT22;61000;48.120;11.548;2023-12-28T11:33:14;11.10;93.90
72865;DHT22;61000;48.120;11.548;2023-12-28T11:38:12;10.90;75.90
72865;DHT22;61000;48.120;11.548;2023-12-28T11:40:42;10.90;76.10
72865;DHT22;61000;48.120;11.548;2023-12-28T11:43:17;11.00;75.50
72865;DHT22;61000;48.120;11.548;2023-12-28T11:45:49;11.10;75.70
72865;DHT22;61000;48.120;11.548;2023-12-28T11:48:23;11.10;74.40
72865;DHT22;61000;48.120;11.548;2023-12-28T11:50:55;11.20;74.50
72865;DHT22;61000;48.120;11.548;2023-12-28T11:53:23;11.20;74.90
72865;DHT22;61000;48.120;11.548;2023-12-28T11:55:50;11.30;74.90
72865;DHT22;61000;48.120;11.548;2023-12-28T11:58:17;11.30;74.50
72865;DHT22;61000;48.120;11.548;2023-12-28T12:00:44;11.30;74.80
72865;DHT22;61000;48.120;11.548;2023-12-28T12:03:14;11.30;75.10
72865;DHT22;61000;48.120;11.548;2023-12-28T12:05:41;11.30;75.30
72865;DHT22;61000;48.120;11.548;2023-12-28T12:08:09;11.30;74.50
72865;DHT22;61000;48.120;11.548;2023-12-28T12:10:39;11.40;74.60
72865;DHT22;61000;48.120;11.548;2023-12-28T12:13:07;11.40;74.60
72865;DHT22;61000;48.120;11.548;2023-12-28T12:15:34;11.40;74.20
72865;DHT22;61000;48.120;11.548;2023-12-28T12:18:01;11.50;73.80
72865;DHT22;61000;48.120;11.548;2023-12-28T12:20:30;11.50;73.00
72865;DHT22;61000;48.120;11.548;2023-12-28T12:22:58;11.60;72.40
72865;DHT22;61000;48.120;11.548;2023-12-28T12:25:25;11.60;72.30
72865;DHT22;61000;48.120;11.548;2023-12-28T12:27:53;11.60;72.90
72865;DHT22;61000;48.120;11.548;2023-12-28T12:30:20;11.60;72.40
72865;DHT22;61000;48.120;11.548;2023-12-28T12:32:48;11.60;72.90
72865;DHT22;61000;48.120;11.548;2023-12-28T12:35:15;11.50;74.00
72865;DHT22;61000;48.120;11.548;2023-12-28T12:37:45;11.60;74.10
72865;DHT22;61000;48.120;11.548;2023-12-28T12:40:12;11.60;73.60
72865;DHT22;61000;48.120;11.548;2023-12-28T12:42:41;11.50;73.50
72865;DHT22;61000;48.120;11.548;2023-12-28T12:45:09;11.50;73.90
72865;DHT22;61000;48.120;11.548;2023-12-28T12:47:36;11.50;73.80
72865;DHT22;61000;48.120;11.548;2023-12-28T12:50:03;11.50;73.50
72865;DHT22;61000;48.120;11.548;2023-12-28T12:52:30;11.50;73.20
72865;DHT22;61000;48.120;11.548;2023-12-28T12:54:59;11.50;73.20
72865;DHT22;61000;48.120;11.548;2023-12-28T12:57:26;11.60;73.20
72865;DHT22;61000;48.120;11.548;2023-12-28T12:59:53;11.60;73.60
72865;DHT22;61000;48.120;11.548;2023-12-28T13:02:22;11.50;73.80
72865;DHT22;61000;48.120;11.548;2023-12-28T13:04:51;11.60;73.60
72865;DHT22;61000;48.120;11.548;2023-12-28T13:07:19;11.60;74.00
72865;DHT22;61000;48.120;11.548;2023-12-28T13:09:46;11.60;74.10
72865;DHT22;61000;48.120;11.548;2023-12-28T13:12:14;11.60;74.10
72865;DHT22;61000;48.120;11.548;2023-12-28T13:14:41;11.60;73.80
72865;DHT22;61000;48.120;11.548;2023-12-28T13:17:10;11.60;74.00
72865;DHT22;61000;48.120;11.548;2023-12-28T13:19:37;11.60;73.90
72865;DHT22;61000;48.120;11.548;2023-12-28T13:22:04;11.60;74.30
72865;DHT22;61000;48.120;11.548;2023-12-28T13:24:31;11.60;75.00
72865;DHT22;61000;48.120;11.548;2023-12-28T13:26:58;11.60;75.00
72865;DHT22;61000;48.120;11.548;2023-12-28T13:29:27;11.60;74.80
72865;DHT22;61000;48.120;11.548;2023-12-28T13:31:55;11.60;74.50
72865;DHT22;61000;48.120;11.548;2023-12-28T13:34:23;11.60;74.70
72865;DHT22;61000;48.120;11.548;2023-12-28T13:36:50;11.60;74.70
72865;DHT22;61000;48.120;11.548;2023-12-28T13:39:18;11.60;75.00
72865;DHT22;61000;48.120;11.548;2023-12-28T13:41:45;11.60;75.30
72865;DHT22;61000;48.120;11.548;2023-12-28T13:44:12;11.60;75.00
72865;DHT22;61000;48.120;11.548;2023-12-28T13:46:40;11.60;75.30
72865;DHT22;61000;48.120;11.548;2023-12-28T13:49:08;11.60;76.00
72865;DHT22;61000;48.120;11.548;2023-12-28T13:51:35;11.60;75.70
72865;DHT22;61000;48.120;11.548;2023-12-28T13:54:02;11.60;75.60
72865;DHT22;61000;48.120;11.548;2023-12-28T13:56:28;11.50;76.00
72865;DHT22;61000;48.120;11.548;2023-12-28T13:58:55;11.50;76.30
72865;DHT22;61000;48.120;11.548;2023-12-28T14:01:22;11.50;76.50
72865;DHT22;61000;48.120;11.548;2023-12-28T14:03:51;11.50;76.50
72865;DHT22;61000;48.120;11.548;2023-12-28T14:06:18;11.40;76.60
72865;DHT22;61000;48.120;11.548;2023-12-28T14:08:45;11.40;77.00
72865;DHT22;61000;48.120;11.548;2023-12-28T14:11:12;11.40;76.70
72865;DHT22;61000;48.120;11.548;2023-12-28T14:13:39;11.40;76.90
72865;DHT22;61000;48.120;11.548;2023-12-28T14:16:06;11.40;77.00
72865;DHT22;61000;48.120;11.548;2023-12-28T14:18:34;11.40;77.20
72865;DHT22;61000;48.120;11.548;2023-12-28T14:21:02;11.40;77.30
72865;DHT22;61000;48.120;11.548;2023-12-28T14:23:30;11.40;77.60
72865;DHT22;61000;48.120;11.548;2023-12-28T14:25:58;11.40;77.40
72865;DHT22;61000;48.120;11.548;2023-12-28T14:28:25;11.40;77.40
72865;DHT22;61000;48.120;11.548;2023-12-28T14:30:54;11.40;77.70
72865;DHT22;61000;48.120;11.548;2023-12-28T14:33:22;11.30;77.50
72865;DHT22;61000;48.120;11.548;2023-12-28T14:35:49;11.30;77.60
72865;DHT22;61000;48.120;11.548;2023-12-28T14:38:18;11.30;77.80
72865;DHT22;61000;48.120;11.548;2023-12-28T14:40:45;11.30;78.10
72865;DHT22;61000;48.120;11.548;2023-12-28T14:43:13;11.20;78.10
72865;DHT22;61000;48.120;11.548;2023-12-28T14:45:39;11.20;78.40
72865;DHT22;61000;48.120;11.548;2023-12-28T14:48:07;11.20;78.50
72865;DHT22;61000;48.120;11.548;2023-12-28T14:50:34;11.20;79.00
72865;DHT22;61000;48.120;11.548;2023-12-28T14:53:01;11.10;78.90
72865;DHT22;61000;48.120;11.548;2023-12-28T14:55:29;11.10;79.10
72865;DHT22;61000;48.120;11.548;2023-12-28T14:57:56;11.10;79.30
72865;DHT22;61000;48.120;11.548;2023-12-28T15:00:24;11.00;79.50
72865;DHT22;61000;48.120;11.548;2023-12-28T15:02:52;11.00;79.60
72865;DHT22;61000;48.120;11.548;2023-12-28T15:05:18;11.00;79.80
72865;DHT22;61000;48.120;11.548;2023-12-28T15:07:45;10.90;79.80
72865;DHT22;61000;48.120;11.548;2023-12-28T15:10:14;10.90;79.90
72865;DHT22;61000;48.120;11.548;2023-12-28T15:12:43;10.90;79.90
72865;DHT22;61000;48.120;11.548;2023-12-28T15:15:11;10.90;80.20
72865;DHT22;61000;48.120;11.548;2023-12-28T15:17:39;10.90;79.00
72865;DHT22;61000;48.120;11.548;2023-12-28T15:20:07;10.90;79.10
72865;DHT22;61000;48.120;11.548;2023-12-28T15:22:35;10.90;78.40
72865;DHT22;61000;48.120;11.548;2023-12-28T15:25:02;10.90;78.10
72865;DHT22;61000;48.120;11.548;2023-12-28T15:27:31;10.90;78.10
72865;DHT22;61000;48.120;11.548;2023-12-28T15:30:01;10.90;77.70
72865;DHT22;61000;48.120;11.548;2023-12-28T15:32:28;10.90;77.80
72865;DHT22;61000;48.120;11.548;2023-12-28T15:34:55;10.90;77.60
72865;DHT22;61000;48.120;11.548;2023-12-28T15:37:22;10.90;77.50